sensor_id;sensor_type;location;lat;lon;timestamp;P1;durP1;ratioP1;P2;durP2;ratioP2
16737;SDS011;17906;47.684;10.806;2023-05-10T00:00:03;0.20;;;0.20;;
16737;SDS011;17906;47.684;10.806;2023-05-10T00:02:31;1.27;;;0.30;;
16737;SDS011;17906;47.684;10.806;2023-05-10T00:04:57;1.70;;;0.27;;
16737;SDS011;17906;47.684;10.806;2023-05-10T00:07:24;0.20;;;0.20;;
16737;SDS011;17906;47.684;10.806;2023-05-10T00:09:51;0.67;;;0.30;;
16737;SDS011;17906;47.684;10.806;2023-05-10T00:12:17;0.30;;;0.20;;
16737;SDS011;17906;47.684;10.806;2023-05-10T00:14:45;1.00;;;0.57;;
16737;SDS011;17906;47.684;10.806;2023-05-10T00:17:12;1.13;;;0.30;;
16737;SDS011;17906;47.684;10.806;2023-05-10T00:19:38;2.10;;;0.27;;
16737;SDS011;17906;47.684;10.806;2023-05-10T00:22:05;2.63;;;0.53;;
16737;SDS011;17906;47.684;10.806;2023-05-10T00:24:31;0.40;;;0.30;;
16737;SDS011;17906;47.684;10.806;2023-05-10T00:26:58;0.90;;;0.40;;
16737;SDS011;17906;47.684;10.806;2023-05-10T00:29:25;3.50;;;0.30;;
16737;SDS011;17906;47.684;10.806;2023-05-10T00:31:54;1.70;;;0.40;;
16737;SDS011;17906;47.684;10.806;2023-05-10T00:34:21;0.50;;;0.40;;
16737;SDS011;17906;47.684;10.806;2023-05-10T00:36:48;0.70;;;0.30;;
16737;SDS011;17906;47.684;10.806;2023-05-10T00:39:14;5.17;;;0.57;;
16737;SDS011;17906;47.684;10.806;2023-05-10T00:41:41;0.83;;;0.40;;
16737;SDS011;17906;47.684;10.806;2023-05-10T00:44:07;0.40;;;0.30;;
16737;SDS011;17906;47.684;10.806;2023-05-10T00:46:34;1.00;;;0.47;;
16737;SDS011;17906;47.684;10.806;2023-05-10T00:49:02;0.43;;;0.30;;
16737;SDS011;17906;47.684;10.806;2023-05-10T00:51:29;1.10;;;0.40;;
16737;SDS011;17906;47.684;10.806;2023-05-10T00:53:56;0.57;;;0.33;;
16737;SDS011;17906;47.684;10.806;2023-05-10T00:56:23;0.30;;;0.30;;
16737;SDS011;17906;47.684;10.806;2023-05-10T00:58:51;0.70;;;0.30;;
16737;SDS011;17906;47.684;10.806;2023-05-10T01:01:18;0.60;;;0.30;;
16737;SDS011;17906;47.684;10.806;2023-05-10T01:03:45;0.40;;;0.30;;
16737;SDS011;17906;47.684;10.806;2023-05-10T01:06:14;1.20;;;0.30;;
16737;SDS011;17906;47.684;10.806;2023-05-10T01:08:40;0.17;;;0.17;;
16737;SDS011;17906;47.684;10.806;2023-05-10T01:11:07;0.80;;;0.20;;
16737;SDS011;17906;47.684;10.806;2023-05-10T01:13:34;0.30;;;0.20;;
16737;SDS011;17906;47.684;10.806;2023-05-10T01:16:03;0.47;;;0.20;;
16737;SDS011;17906;47.684;10.806;2023-05-10T01:18:31;0.53;;;0.27;;
16737;SDS011;17906;47.684;10.806;2023-05-10T01:21:04;0.30;;;0.23;;
16737;SDS011;17906;47.684;10.806;2023-05-10T01:23:45;0.30;;;0.20;;
16737;SDS011;17906;47.684;10.806;2023-05-10T01:26:38;0.87;;;0.30;;
16737;SDS011;17906;47.684;10.806;2023-05-10T01:29:24;1.63;;;0.30;;
16737;SDS011;17906;47.684;10.806;2023-05-10T01:34:59;0.60;;;0.40;;
16737;SDS011;17906;47.684;10.806;2023-05-10T01:37:37;0.83;;;0.20;;
16737;SDS011;17906;47.684;10.806;2023-05-10T01:40:10;0.40;;;0.20;;
16737;SDS011;17906;47.684;10.806;2023-05-10T01:42:46;0.60;;;0.37;;
16737;SDS011;17906;47.684;10.806;2023-05-10T01:45:18;0.30;;;0.27;;
16737;SDS011;17906;47.684;10.806;2023-05-10T01:47:54;0.20;;;0.20;;
16737;SDS011;17906;47.684;10.806;2023-05-10T01:50:29;0.20;;;0.20;;
16737;SDS011;17906;47.684;10.806;2023-05-10T01:52:57;0.70;;;0.30;;
16737;SDS011;17906;47.684;10.806;2023-05-10T01:55:27;1.90;;;0.40;;
16737;SDS011;17906;47.684;10.806;2023-05-10T01:57:58;0.50;;;0.37;;
16737;SDS011;17906;47.684;10.806;2023-05-10T02:00:28;0.90;;;0.47;;
16737;SDS011;17906;47.684;10.806;2023-05-10T02:02:57;0.40;;;0.30;;
16737;SDS011;17906;47.684;10.806;2023-05-10T02:05:26;0.40;;;0.30;;
16737;SDS011;17906;47.684;10.806;2023-05-10T02:07:55;0.53;;;0.23;;
16737;SDS011;17906;47.684;10.806;2023-05-10T02:10:24;0.57;;;0.27;;
16737;SDS011;17906;47.684;10.806;2023-05-10T02:12:51;1.80;;;0.20;;
16737;SDS011;17906;47.684;10.806;2023-05-10T02:15:20;0.53;;;0.40;;
16737;SDS011;17906;47.684;10.806;2023-05-10T02:17:50;0.20;;;0.20;;
16737;SDS011;17906;47.684;10.806;2023-05-10T02:20:21;0.20;;;0.20;;
16737;SDS011;17906;47.684;10.806;2023-05-10T02:22:50;0.30;;;0.20;;
16737;SDS011;17906;47.684;10.806;2023-05-10T02:25:19;0.20;;;0.20;;
16737;SDS011;17906;47.684;10.806;2023-05-10T02:27:47;0.50;;;0.20;;
16737;SDS011;17906;47.684;10.806;2023-05-10T02:30:15;0.30;;;0.20;;
16737;SDS011;17906;47.684;10.806;2023-05-10T02:32:42;3.57;;;0.30;;
16737;SDS011;17906;47.684;10.806;2023-05-10T02:35:10;0.13;;;0.10;;
16737;SDS011;17906;47.684;10.806;2023-05-10T02:37:38;0.40;;;0.17;;
16737;SDS011;17906;47.684;10.806;2023-05-10T02:40:06;0.07;;;0.07;;
16737;SDS011;17906;47.684;10.806;2023-05-10T02:42:36;0.20;;;0.20;;
16737;SDS011;17906;47.684;10.806;2023-05-10T02:45:05;0.10;;;0.10;;
16737;SDS011;17906;47.684;10.806;2023-05-10T02:47:34;0.10;;;0.10;;
16737;SDS011;17906;47.684;10.806;2023-05-10T02:50:02;1.23;;;0.20;;
16737;SDS011;17906;47.684;10.806;2023-05-10T02:52:29;0.20;;;0.17;;
16737;SDS011;17906;47.684;10.806;2023-05-10T02:55:03;0.50;;;0.10;;
16737;SDS011;17906;47.684;10.806;2023-05-10T02:57:32;1.43;;;0.10;;
16737;SDS011;17906;47.684;10.806;2023-05-10T03:00:00;0.50;;;0.50;;
16737;SDS011;17906;47.684;10.806;2023-05-10T03:02:28;0.77;;;0.20;;
16737;SDS011;17906;47.684;10.806;2023-05-10T03:04:55;0.10;;;0.10;;
16737;SDS011;17906;47.684;10.806;2023-05-10T03:07:22;0.30;;;0.23;;
16737;SDS011;17906;47.684;10.806;2023-05-10T03:09:49;0.27;;;0.20;;
16737;SDS011;17906;47.684;10.806;2023-05-10T03:12:19;0.10;;;0.10;;
16737;SDS011;17906;47.684;10.806;2023-05-10T03:15:03;0.20;;;0.10;;
16737;SDS011;17906;47.684;10.806;2023-05-10T03:17:40;0.00;;;0.00;;
16737;SDS011;17906;47.684;10.806;2023-05-10T03:20:12;0.40;;;0.20;;
16737;SDS011;17906;47.684;10.806;2023-05-10T03:22:47;0.20;;;0.20;;
16737;SDS011;17906;47.684;10.806;2023-05-10T03:25:17;0.10;;;0.10;;
16737;SDS011;17906;47.684;10.806;2023-05-10T03:27:48;0.20;;;0.10;;
16737;SDS011;17906;47.684;10.806;2023-05-10T03:30:15;0.60;;;0.10;;
16737;SDS011;17906;47.684;10.806;2023-05-10T03:32:43;0.47;;;0.20;;
16737;SDS011;17906;47.684;10.806;2023-05-10T03:35:10;0.23;;;0.00;;
16737;SDS011;17906;47.684;10.806;2023-05-10T03:37:38;0.00;;;0.00;;
16737;SDS011;17906;47.684;10.806;2023-05-10T03:40:06;1.03;;;0.73;;
16737;SDS011;17906;47.684;10.806;2023-05-10T03:42:34;0.27;;;0.17;;
16737;SDS011;17906;47.684;10.806;2023-05-10T03:45:02;0.20;;;0.00;;
16737;SDS011;17906;47.684;10.806;2023-05-10T03:47:29;0.10;;;0.10;;
16737;SDS011;17906;47.684;10.806;2023-05-10T03:49:55;0.10;;;0.10;;
16737;SDS011;17906;47.684;10.806;2023-05-10T03:52:22;0.20;;;0.10;;
16737;SDS011;17906;47.684;10.806;2023-05-10T03:54:48;1.40;;;0.10;;
16737;SDS011;17906;47.684;10.806;2023-05-10T03:57:15;0.00;;;0.00;;
16737;SDS011;17906;47.684;10.806;2023-05-10T03:59:41;0.90;;;0.10;;
16737;SDS011;17906;47.684;10.806;2023-05-10T04:02:09;0.40;;;0.10;;
16737;SDS011;17906;47.684;10.806;2023-05-10T04:04:36;0.87;;;0.20;;
16737;SDS011;17906;47.684;10.806;2023-05-10T04:07:02;0.10;;;0.10;;
16737;SDS011;17906;47.684;10.806;2023-05-10T04:09:29;1.90;;;0.10;;
16737;SDS011;17906;47.684;10.806;2023-05-10T04:11:56;0.80;;;0.27;;
16737;SDS011;17906;47.684;10.806;2023-05-10T04:14:24;1.33;;;0.10;;
16737;SDS011;17906;47.684;10.806;2023-05-10T04:16:51;0.20;;;0.10;;
16737;SDS011;17906;47.684;10.806;2023-05-10T04:19:19;0.20;;;0.10;;
16737;SDS011;17906;47.684;10.806;2023-05-10T04:21:45;0.20;;;0.20;;
16737;SDS011;17906;47.684;10.806;2023-05-10T04:24:12;0.10;;;0.03;;
16737;SDS011;17906;47.684;10.806;2023-05-10T04:26:38;0.40;;;0.10;;
16737;SDS011;17906;47.684;10.806;2023-05-10T04:29:05;1.80;;;0.23;;
16737;SDS011;17906;47.684;10.806;2023-05-10T04:31:32;2.20;;;0.30;;
16737;SDS011;17906;47.684;10.806;2023-05-10T04:33:59;0.10;;;0.10;;
16737;SDS011;17906;47.684;10.806;2023-05-10T04:36:27;1.47;;;1.13;;
16737;SDS011;17906;47.684;10.806;2023-05-10T04:38:53;0.30;;;0.10;;
16737;SDS011;17906;47.684;10.806;2023-05-10T04:41:20;3.80;;;0.90;;
16737;SDS011;17906;47.684;10.806;2023-05-10T04:43:46;2.37;;;0.30;;
16737;SDS011;17906;47.684;10.806;2023-05-10T04:46:14;0.10;;;0.10;;
16737;SDS011;17906;47.684;10.806;2023-05-10T04:48:40;0.30;;;0.10;;
16737;SDS011;17906;47.684;10.806;2023-05-10T04:51:07;0.77;;;0.20;;
16737;SDS011;17906;47.684;10.806;2023-05-10T04:53:35;0.40;;;0.20;;
16737;SDS011;17906;47.684;10.806;2023-05-10T04:56:02;0.10;;;0.10;;
16737;SDS011;17906;47.684;10.806;2023-05-10T04:58:28;1.60;;;0.30;;
16737;SDS011;17906;47.684;10.806;2023-05-10T05:00:55;0.33;;;0.20;;
16737;SDS011;17906;47.684;10.806;2023-05-10T05:03:22;0.40;;;0.30;;
16737;SDS011;17906;47.684;10.806;2023-05-10T05:05:48;0.43;;;0.20;;
16737;SDS011;17906;47.684;10.806;2023-05-10T05:08:15;0.20;;;0.20;;
16737;SDS011;17906;47.684;10.806;2023-05-10T05:10:43;0.30;;;0.30;;
16737;SDS011;17906;47.684;10.806;2023-05-10T05:13:09;0.83;;;0.50;;
16737;SDS011;17906;47.684;10.806;2023-05-10T05:15:36;0.70;;;0.60;;
16737;SDS011;17906;47.684;10.806;2023-05-10T05:18:02;1.53;;;0.50;;
16737;SDS011;17906;47.684;10.806;2023-05-10T05:20:31;0.30;;;0.30;;
16737;SDS011;17906;47.684;10.806;2023-05-10T05:22:58;1.03;;;0.30;;
16737;SDS011;17906;47.684;10.806;2023-05-10T05:25:24;1.50;;;0.33;;
16737;SDS011;17906;47.684;10.806;2023-05-10T05:27:52;4.40;;;0.70;;
16737;SDS011;17906;47.684;10.806;2023-05-10T05:30:19;2.57;;;0.50;;
16737;SDS011;17906;47.684;10.806;2023-05-10T05:32:46;1.13;;;0.60;;
16737;SDS011;17906;47.684;10.806;2023-05-10T05:35:13;1.30;;;0.50;;
16737;SDS011;17906;47.684;10.806;2023-05-10T05:37:39;3.60;;;1.80;;
16737;SDS011;17906;47.684;10.806;2023-05-10T05:40:06;1.27;;;0.57;;
16737;SDS011;17906;47.684;10.806;2023-05-10T05:42:33;0.83;;;0.50;;
16737;SDS011;17906;47.684;10.806;2023-05-10T05:45:01;2.00;;;0.60;;
16737;SDS011;17906;47.684;10.806;2023-05-10T05:47:28;1.33;;;0.50;;
16737;SDS011;17906;47.684;10.806;2023-05-10T05:49:55;2.07;;;0.53;;
16737;SDS011;17906;47.684;10.806;2023-05-10T05:52:21;0.57;;;0.33;;
16737;SDS011;17906;47.684;10.806;2023-05-10T05:54:48;3.50;;;0.57;;
16737;SDS011;17906;47.684;10.806;2023-05-10T05:57:15;1.97;;;0.50;;
16737;SDS011;17906;47.684;10.806;2023-05-10T05:59:41;0.70;;;0.40;;
16737;SDS011;17906;47.684;10.806;2023-05-10T06:02:10;0.53;;;0.30;;
16737;SDS011;17906;47.684;10.806;2023-05-10T06:04:36;1.03;;;0.30;;
16737;SDS011;17906;47.684;10.806;2023-05-10T06:07:03;1.03;;;0.63;;
16737;SDS011;17906;47.684;10.806;2023-05-10T06:09:30;1.23;;;0.50;;
16737;SDS011;17906;47.684;10.806;2023-05-10T06:11:56;1.00;;;0.50;;
16737;SDS011;17906;47.684;10.806;2023-05-10T06:14:23;0.50;;;0.30;;
16737;SDS011;17906;47.684;10.806;2023-05-10T06:16:49;0.90;;;0.40;;
16737;SDS011;17906;47.684;10.806;2023-05-10T06:19:17;0.50;;;0.30;;
16737;SDS011;17906;47.684;10.806;2023-05-10T06:21:44;0.70;;;0.30;;
16737;SDS011;17906;47.684;10.806;2023-05-10T06:24:10;0.80;;;0.40;;
16737;SDS011;17906;47.684;10.806;2023-05-10T06:26:37;2.23;;;0.50;;
16737;SDS011;17906;47.684;10.806;2023-05-10T06:29:03;1.87;;;0.70;;
16737;SDS011;17906;47.684;10.806;2023-05-10T06:31:30;0.90;;;0.70;;
16737;SDS011;17906;47.684;10.806;2023-05-10T06:33:57;0.87;;;0.67;;
16737;SDS011;17906;47.684;10.806;2023-05-10T06:36:25;2.60;;;0.87;;
16737;SDS011;17906;47.684;10.806;2023-05-10T06:38:52;6.37;;;2.20;;
16737;SDS011;17906;47.684;10.806;2023-05-10T06:41:19;1.97;;;1.07;;
16737;SDS011;17906;47.684;10.806;2023-05-10T06:43:46;1.37;;;0.60;;
16737;SDS011;17906;47.684;10.806;2023-05-10T06:46:12;1.23;;;0.80;;
16737;SDS011;17906;47.684;10.806;2023-05-10T06:48:39;0.70;;;0.60;;
16737;SDS011;17906;47.684;10.806;2023-05-10T06:51:05;0.70;;;0.60;;
16737;SDS011;17906;47.684;10.806;2023-05-10T06:53:33;1.80;;;0.57;;
16737;SDS011;17906;47.684;10.806;2023-05-10T06:56:00;0.40;;;0.30;;
16737;SDS011;17906;47.684;10.806;2023-05-10T06:58:27;0.73;;;0.40;;
16737;SDS011;17906;47.684;10.806;2023-05-10T07:00:54;0.67;;;0.37;;
16737;SDS011;17906;47.684;10.806;2023-05-10T07:03:20;0.70;;;0.50;;
16737;SDS011;17906;47.684;10.806;2023-05-10T07:05:47;1.73;;;0.30;;
16737;SDS011;17906;47.684;10.806;2023-05-10T07:08:13;3.73;;;0.70;;
16737;SDS011;17906;47.684;10.806;2023-05-10T07:10:41;0.77;;;0.30;;
16737;SDS011;17906;47.684;10.806;2023-05-10T07:13:08;1.03;;;0.37;;
16737;SDS011;17906;47.684;10.806;2023-05-10T07:15:34;0.57;;;0.33;;
16737;SDS011;17906;47.684;10.806;2023-05-10T07:18:01;0.40;;;0.30;;
16737;SDS011;17906;47.684;10.806;2023-05-10T07:20:29;0.50;;;0.30;;
16737;SDS011;17906;47.684;10.806;2023-05-10T07:22:55;1.57;;;0.40;;
16737;SDS011;17906;47.684;10.806;2023-05-10T07:25:22;0.80;;;0.60;;
16737;SDS011;17906;47.684;10.806;2023-05-10T07:27:50;1.87;;;1.10;;
16737;SDS011;17906;47.684;10.806;2023-05-10T07:30:16;1.33;;;0.57;;
16737;SDS011;17906;47.684;10.806;2023-05-10T07:32:43;0.53;;;0.40;;
16737;SDS011;17906;47.684;10.806;2023-05-10T07:35:10;0.90;;;0.50;;
16737;SDS011;17906;47.684;10.806;2023-05-10T07:37:36;0.63;;;0.50;;
16737;SDS011;17906;47.684;10.806;2023-05-10T07:40:03;1.00;;;0.40;;
16737;SDS011;17906;47.684;10.806;2023-05-10T07:42:30;0.80;;;0.50;;
16737;SDS011;17906;47.684;10.806;2023-05-10T07:44:58;1.07;;;0.43;;
16737;SDS011;17906;47.684;10.806;2023-05-10T07:47:25;2.33;;;0.53;;
16737;SDS011;17906;47.684;10.806;2023-05-10T07:49:51;0.50;;;0.50;;
16737;SDS011;17906;47.684;10.806;2023-05-10T07:52:18;1.00;;;0.60;;
16737;SDS011;17906;47.684;10.806;2023-05-10T07:54:44;0.73;;;0.60;;
16737;SDS011;17906;47.684;10.806;2023-05-10T07:57:11;1.03;;;0.40;;
16737;SDS011;17906;47.684;10.806;2023-05-10T07:59:39;0.70;;;0.50;;
16737;SDS011;17906;47.684;10.806;2023-05-10T08:02:07;1.23;;;0.50;;
16737;SDS011;17906;47.684;10.806;2023-05-10T08:04:34;0.50;;;0.50;;
16737;SDS011;17906;47.684;10.806;2023-05-10T08:07:00;1.63;;;0.70;;
16737;SDS011;17906;47.684;10.806;2023-05-10T08:09:27;1.43;;;0.60;;
16737;SDS011;17906;47.684;10.806;2023-05-10T08:11:53;1.00;;;0.67;;
16737;SDS011;17906;47.684;10.806;2023-05-10T08:14:20;0.80;;;0.60;;
16737;SDS011;17906;47.684;10.806;2023-05-10T08:16:47;1.67;;;0.77;;
16737;SDS011;17906;47.684;10.806;2023-05-10T08:19:14;2.17;;;0.60;;
16737;SDS011;17906;47.684;10.806;2023-05-10T08:21:43;1.40;;;0.70;;
16737;SDS011;17906;47.684;10.806;2023-05-10T08:24:10;0.90;;;0.70;;
16737;SDS011;17906;47.684;10.806;2023-05-10T08:26:37;1.57;;;0.70;;
16737;SDS011;17906;47.684;10.806;2023-05-10T08:29:04;1.03;;;0.50;;
16737;SDS011;17906;47.684;10.806;2023-05-10T08:31:31;1.33;;;0.50;;
16737;SDS011;17906;47.684;10.806;2023-05-10T08:33:57;3.03;;;0.80;;
16737;SDS011;17906;47.684;10.806;2023-05-10T08:36:25;1.00;;;0.70;;
16737;SDS011;17906;47.684;10.806;2023-05-10T08:38:53;1.23;;;0.87;;
16737;SDS011;17906;47.684;10.806;2023-05-10T08:41:20;1.03;;;0.70;;
16737;SDS011;17906;47.684;10.806;2023-05-10T08:43:49;1.07;;;0.80;;
16737;SDS011;17906;47.684;10.806;2023-05-10T08:46:17;1.50;;;0.70;;
16737;SDS011;17906;47.684;10.806;2023-05-10T08:48:44;1.37;;;0.80;;
16737;SDS011;17906;47.684;10.806;2023-05-10T08:51:12;2.20;;;0.70;;
16737;SDS011;17906;47.684;10.806;2023-05-10T08:53:43;1.40;;;1.20;;
16737;SDS011;17906;47.684;10.806;2023-05-10T08:56:10;2.20;;;1.00;;
16737;SDS011;17906;47.684;10.806;2023-05-10T08:58:37;0.73;;;0.53;;
16737;SDS011;17906;47.684;10.806;2023-05-10T09:01:04;1.70;;;0.50;;
16737;SDS011;17906;47.684;10.806;2023-05-10T09:03:31;1.90;;;0.70;;
16737;SDS011;17906;47.684;10.806;2023-05-10T09:05:58;0.70;;;0.63;;
16737;SDS011;17906;47.684;10.806;2023-05-10T09:08:24;1.60;;;0.83;;
16737;SDS011;17906;47.684;10.806;2023-05-10T09:10:53;1.43;;;0.73;;
16737;SDS011;17906;47.684;10.806;2023-05-10T09:13:21;1.43;;;0.70;;
16737;SDS011;17906;47.684;10.806;2023-05-10T09:15:49;1.17;;;0.80;;
16737;SDS011;17906;47.684;10.806;2023-05-10T09:18:17;0.50;;;0.50;;
16737;SDS011;17906;47.684;10.806;2023-05-10T09:20:43;1.37;;;0.90;;
16737;SDS011;17906;47.684;10.806;2023-05-10T09:23:10;1.67;;;0.60;;
16737;SDS011;17906;47.684;10.806;2023-05-10T09:25:36;1.23;;;0.77;;
16737;SDS011;17906;47.684;10.806;2023-05-10T09:28:07;1.00;;;0.60;;
16737;SDS011;17906;47.684;10.806;2023-05-10T09:30:34;2.73;;;0.60;;
16737;SDS011;17906;47.684;10.806;2023-05-10T09:33:01;1.63;;;0.60;;
16737;SDS011;17906;47.684;10.806;2023-05-10T09:35:28;0.63;;;0.60;;
16737;SDS011;17906;47.684;10.806;2023-05-10T09:37:57;1.20;;;0.80;;
16737;SDS011;17906;47.684;10.806;2023-05-10T09:40:26;1.73;;;0.73;;
16737;SDS011;17906;47.684;10.806;2023-05-10T09:42:54;0.70;;;0.60;;
16737;SDS011;17906;47.684;10.806;2023-05-10T09:45:24;1.00;;;0.60;;
16737;SDS011;17906;47.684;10.806;2023-05-10T09:47:52;0.63;;;0.47;;
16737;SDS011;17906;47.684;10.806;2023-05-10T09:50:18;1.37;;;0.60;;
16737;SDS011;17906;47.684;10.806;2023-05-10T09:52:45;1.53;;;0.50;;
16737;SDS011;17906;47.684;10.806;2023-05-10T09:55:13;2.20;;;0.60;;
16737;SDS011;17906;47.684;10.806;2023-05-10T09:57:40;1.63;;;0.90;;
16737;SDS011;17906;47.684;10.806;2023-05-10T10:00:07;1.53;;;0.70;;
16737;SDS011;17906;47.684;10.806;2023-05-10T10:02:36;2.70;;;0.90;;
16737;SDS011;17906;47.684;10.806;2023-05-10T10:05:03;2.10;;;0.97;;
16737;SDS011;17906;47.684;10.806;2023-05-10T10:07:30;0.67;;;0.67;;
16737;SDS011;17906;47.684;10.806;2023-05-10T10:09:56;2.73;;;1.00;;
16737;SDS011;17906;47.684;10.806;2023-05-10T10:12:24;1.33;;;0.70;;
16737;SDS011;17906;47.684;10.806;2023-05-10T10:14:52;1.10;;;0.80;;
16737;SDS011;17906;47.684;10.806;2023-05-10T10:17:19;2.17;;;1.00;;
16737;SDS011;17906;47.684;10.806;2023-05-10T10:19:47;0.80;;;0.60;;
16737;SDS011;17906;47.684;10.806;2023-05-10T10:22:15;1.20;;;0.80;;
16737;SDS011;17906;47.684;10.806;2023-05-10T10:24:42;1.57;;;0.90;;
16737;SDS011;17906;47.684;10.806;2023-05-10T10:27:13;1.20;;;0.93;;
16737;SDS011;17906;47.684;10.806;2023-05-10T10:29:50;1.87;;;0.90;;
16737;SDS011;17906;47.684;10.806;2023-05-10T10:32:33;2.60;;;0.87;;
16737;SDS011;17906;47.684;10.806;2023-05-10T10:35:09;1.27;;;0.80;;
16737;SDS011;17906;47.684;10.806;2023-05-10T10:37:45;0.93;;;0.70;;
16737;SDS011;17906;47.684;10.806;2023-05-10T10:40:22;1.20;;;0.70;;
16737;SDS011;17906;47.684;10.806;2023-05-10T10:42:49;2.27;;;0.80;;
16737;SDS011;17906;47.684;10.806;2023-05-10T10:45:16;0.80;;;0.80;;
16737;SDS011;17906;47.684;10.806;2023-05-10T10:47:42;0.83;;;0.70;;
16737;SDS011;17906;47.684;10.806;2023-05-10T10:50:12;1.10;;;0.70;;
16737;SDS011;17906;47.684;10.806;2023-05-10T10:52:39;1.90;;;1.23;;
16737;SDS011;17906;47.684;10.806;2023-05-10T10:55:07;1.07;;;0.80;;
16737;SDS011;17906;47.684;10.806;2023-05-10T10:57:45;0.97;;;0.70;;
16737;SDS011;17906;47.684;10.806;2023-05-10T11:00:20;1.50;;;1.00;;
16737;SDS011;17906;47.684;10.806;2023-05-10T11:02:52;1.23;;;0.83;;
16737;SDS011;17906;47.684;10.806;2023-05-10T11:05:24;1.00;;;0.70;;
16737;SDS011;17906;47.684;10.806;2023-05-10T11:08:16;3.63;;;0.70;;
16737;SDS011;17906;47.684;10.806;2023-05-10T11:10:51;2.13;;;0.70;;
16737;SDS011;17906;47.684;10.806;2023-05-10T11:13:26;3.20;;;0.70;;
16737;SDS011;17906;47.684;10.806;2023-05-10T11:15:55;1.20;;;0.90;;
16737;SDS011;17906;47.684;10.806;2023-05-10T11:18:24;1.20;;;0.77;;
16737;SDS011;17906;47.684;10.806;2023-05-10T11:20:54;0.63;;;0.50;;
16737;SDS011;17906;47.684;10.806;2023-05-10T11:23:23;0.90;;;0.60;;
16737;SDS011;17906;47.684;10.806;2023-05-10T11:25:50;0.57;;;0.40;;
16737;SDS011;17906;47.684;10.806;2023-05-10T11:28:17;0.57;;;0.40;;
16737;SDS011;17906;47.684;10.806;2023-05-10T11:30:44;0.80;;;0.50;;
16737;SDS011;17906;47.684;10.806;2023-05-10T11:33:15;1.43;;;0.67;;
16737;SDS011;17906;47.684;10.806;2023-05-10T11:35:42;1.20;;;0.60;;
16737;SDS011;17906;47.684;10.806;2023-05-10T11:38:11;2.27;;;0.70;;
16737;SDS011;17906;47.684;10.806;2023-05-10T11:40:41;0.70;;;0.63;;
16737;SDS011;17906;47.684;10.806;2023-05-10T11:43:08;1.30;;;1.17;;
16737;SDS011;17906;47.684;10.806;2023-05-10T11:45:36;1.50;;;0.80;;
16737;SDS011;17906;47.684;10.806;2023-05-10T11:48:03;3.13;;;0.73;;
16737;SDS011;17906;47.684;10.806;2023-05-10T11:50:29;0.90;;;0.70;;
16737;SDS011;17906;47.684;10.806;2023-05-10T11:52:56;0.80;;;0.63;;
16737;SDS011;17906;47.684;10.806;2023-05-10T11:55:25;0.63;;;0.63;;
16737;SDS011;17906;47.684;10.806;2023-05-10T11:57:52;1.53;;;0.60;;
16737;SDS011;17906;47.684;10.806;2023-05-10T12:00:20;1.30;;;0.70;;
16737;SDS011;17906;47.684;10.806;2023-05-10T12:02:47;0.90;;;0.60;;
16737;SDS011;17906;47.684;10.806;2023-05-10T12:05:14;2.73;;;0.73;;
16737;SDS011;17906;47.684;10.806;2023-05-10T12:07:41;0.70;;;0.57;;
16737;SDS011;17906;47.684;10.806;2023-05-10T12:10:09;2.23;;;0.80;;
16737;SDS011;17906;47.684;10.806;2023-05-10T12:12:41;1.00;;;0.70;;
16737;SDS011;17906;47.684;10.806;2023-05-10T12:15:11;2.03;;;0.80;;
16737;SDS011;17906;47.684;10.806;2023-05-10T12:17:43;3.37;;;0.70;;
16737;SDS011;17906;47.684;10.806;2023-05-10T12:20:13;1.10;;;0.73;;
16737;SDS011;17906;47.684;10.806;2023-05-10T12:22:43;0.90;;;0.63;;
16737;SDS011;17906;47.684;10.806;2023-05-10T12:25:10;2.53;;;0.73;;
16737;SDS011;17906;47.684;10.806;2023-05-10T12:27:37;0.87;;;0.60;;
16737;SDS011;17906;47.684;10.806;2023-05-10T12:30:06;0.70;;;0.60;;
16737;SDS011;17906;47.684;10.806;2023-05-10T12:32:39;1.27;;;0.77;;
16737;SDS011;17906;47.684;10.806;2023-05-10T12:35:07;1.70;;;0.77;;
16737;SDS011;17906;47.684;10.806;2023-05-10T12:37:34;2.83;;;0.90;;
16737;SDS011;17906;47.684;10.806;2023-05-10T12:40:05;1.90;;;0.70;;
16737;SDS011;17906;47.684;10.806;2023-05-10T12:42:33;4.63;;;0.80;;
16737;SDS011;17906;47.684;10.806;2023-05-10T12:44:59;2.63;;;1.00;;
16737;SDS011;17906;47.684;10.806;2023-05-10T12:47:27;1.80;;;0.90;;
16737;SDS011;17906;47.684;10.806;2023-05-10T12:49:54;4.13;;;0.90;;
16737;SDS011;17906;47.684;10.806;2023-05-10T12:52:20;1.33;;;1.00;;
16737;SDS011;17906;47.684;10.806;2023-05-10T12:54:47;1.27;;;1.07;;
16737;SDS011;17906;47.684;10.806;2023-05-10T12:57:14;5.13;;;1.47;;
16737;SDS011;17906;47.684;10.806;2023-05-10T12:59:40;2.10;;;1.20;;
16737;SDS011;17906;47.684;10.806;2023-05-10T13:02:08;2.93;;;1.03;;
16737;SDS011;17906;47.684;10.806;2023-05-10T13:04:36;2.27;;;1.00;;
16737;SDS011;17906;47.684;10.806;2023-05-10T13:07:04;1.33;;;0.80;;
16737;SDS011;17906;47.684;10.806;2023-05-10T13:09:31;1.80;;;1.07;;
16737;SDS011;17906;47.684;10.806;2023-05-10T13:11:58;1.80;;;1.20;;
16737;SDS011;17906;47.684;10.806;2023-05-10T13:14:25;2.10;;;0.70;;
16737;SDS011;17906;47.684;10.806;2023-05-10T13:16:51;3.73;;;1.10;;
16737;SDS011;17906;47.684;10.806;2023-05-10T13:19:18;2.90;;;1.00;;
16737;SDS011;17906;47.684;10.806;2023-05-10T13:21:46;3.33;;;1.73;;
16737;SDS011;17906;47.684;10.806;2023-05-10T13:24:13;4.20;;;1.00;;
16737;SDS011;17906;47.684;10.806;2023-05-10T13:26:40;3.30;;;1.10;;
16737;SDS011;17906;47.684;10.806;2023-05-10T13:29:06;1.60;;;1.07;;
16737;SDS011;17906;47.684;10.806;2023-05-10T13:31:34;2.23;;;1.20;;
16737;SDS011;17906;47.684;10.806;2023-05-10T13:34:00;1.40;;;0.53;;
16737;SDS011;17906;47.684;10.806;2023-05-10T13:36:27;4.13;;;0.50;;
16737;SDS011;17906;47.684;10.806;2023-05-10T13:38:55;1.40;;;0.60;;
16737;SDS011;17906;47.684;10.806;2023-05-10T13:41:21;3.43;;;0.40;;
16737;SDS011;17906;47.684;10.806;2023-05-10T13:43:48;0.50;;;0.33;;
16737;SDS011;17906;47.684;10.806;2023-05-10T13:46:15;2.23;;;0.40;;
16737;SDS011;17906;47.684;10.806;2023-05-10T13:48:41;1.67;;;0.50;;
16737;SDS011;17906;47.684;10.806;2023-05-10T13:51:08;0.47;;;0.37;;
16737;SDS011;17906;47.684;10.806;2023-05-10T13:53:34;1.83;;;0.50;;
16737;SDS011;17906;47.684;10.806;2023-05-10T13:56:02;3.57;;;0.63;;
16737;SDS011;17906;47.684;10.806;2023-05-10T13:58:29;1.10;;;0.63;;
16737;SDS011;17906;47.684;10.806;2023-05-10T14:00:56;3.53;;;0.50;;
16737;SDS011;17906;47.684;10.806;2023-05-10T14:03:22;0.57;;;0.50;;
16737;SDS011;17906;47.684;10.806;2023-05-10T14:05:49;1.10;;;0.63;;
16737;SDS011;17906;47.684;10.806;2023-05-10T14:08:16;1.27;;;0.67;;
16737;SDS011;17906;47.684;10.806;2023-05-10T14:10:42;0.90;;;0.50;;
16737;SDS011;17906;47.684;10.806;2023-05-10T14:13:10;2.33;;;0.87;;
16737;SDS011;17906;47.684;10.806;2023-05-10T14:15:37;2.10;;;0.80;;
16737;SDS011;17906;47.684;10.806;2023-05-10T14:18:03;2.30;;;0.63;;
16737;SDS011;17906;47.684;10.806;2023-05-10T14:20:30;2.07;;;0.73;;
16737;SDS011;17906;47.684;10.806;2023-05-10T14:22:58;2.40;;;0.97;;
16737;SDS011;17906;47.684;10.806;2023-05-10T14:25:25;3.87;;;1.20;;
16737;SDS011;17906;47.684;10.806;2023-05-10T14:27:52;1.00;;;0.70;;
16737;SDS011;17906;47.684;10.806;2023-05-10T14:30:21;3.73;;;1.40;;
16737;SDS011;17906;47.684;10.806;2023-05-10T14:32:47;2.73;;;1.30;;
16737;SDS011;17906;47.684;10.806;2023-05-10T14:35:14;1.63;;;0.70;;
16737;SDS011;17906;47.684;10.806;2023-05-10T14:37:40;3.13;;;0.67;;
16737;SDS011;17906;47.684;10.806;2023-05-10T14:40:08;2.10;;;0.77;;